createdAt,value
2023-02-23T00:02:17.012Z,4.63
2023-02-23T00:04:43.994Z,4.90
2023-02-23T00:07:12.021Z,4.50
2023-02-23T00:09:39.310Z,4.50
2023-02-23T00:12:06.720Z,4.60
2023-02-23T00:14:38.067Z,4.85
2023-02-23T00:17:05.628Z,4.50
2023-02-23T00:19:32.577Z,4.32
2023-02-23T00:22:02.832Z,4.10
2023-02-23T00:24:29.830Z,4.70
2023-02-23T00:26:57.091Z,4.38
2023-02-23T00:29:26.302Z,4.05
2023-02-23T00:31:53.618Z,4.45
2023-02-23T00:34:21.024Z,4.93
2023-02-23T00:36:48.210Z,4.82
2023-02-23T00:39:17.273Z,4.13
2023-02-23T00:41:44.314Z,4.65
2023-02-23T00:44:11.551Z,3.95
2023-02-23T00:46:38.567Z,4.28
2023-02-23T00:49:05.849Z,4.88
2023-02-23T00:51:32.883Z,4.72
2023-02-23T00:54:00.453Z,4.72
2023-02-23T00:56:28.346Z,4.13
2023-02-23T00:58:55.598Z,4.05
2023-02-23T01:01:22.598Z,4.57
2023-02-23T01:03:49.577Z,4.63
2023-02-23T01:06:16.613Z,4.28
2023-02-23T01:08:43.565Z,4.63
2023-02-23T01:11:10.492Z,5.38
2023-02-23T01:13:37.440Z,4.28
2023-02-23T01:16:04.495Z,4.10
2023-02-23T01:18:31.894Z,4.78
2023-02-23T01:21:12.332Z,4.90
2023-02-23T01:23:39.622Z,4.28
2023-02-23T01:26:06.902Z,5.05
2023-02-23T01:28:34.286Z,4.28
2023-02-23T01:31:01.475Z,4.45
2023-02-23T01:33:29.448Z,4.50
2023-02-23T01:35:56.732Z,4.45
2023-02-23T01:38:23.727Z,4.75
2023-02-23T01:40:50.709Z,4.57
2023-02-23T01:43:18.082Z,5.03
2023-02-23T01:45:45.418Z,5.25
2023-02-23T01:48:12.496Z,4.78
2023-02-23T01:50:39.471Z,4.65
2023-02-23T01:53:06.668Z,4.45
2023-02-23T01:55:33.687Z,4.75
2023-02-23T01:58:01.017Z,4.30
2023-02-23T02:00:27.977Z,4.05
2023-02-23T02:02:54.924Z,4.03
2023-02-23T02:05:22.253Z,4.57
2023-02-23T02:07:49.393Z,4.88
2023-02-23T02:10:16.586Z,4.43
2023-02-23T02:12:43.885Z,3.72
2023-02-23T02:15:10.888Z,4.93
2023-02-23T02:17:38.044Z,3.95
2023-02-23T02:20:05.035Z,4.50
2023-02-23T02:22:32.012Z,5.20
2023-02-23T02:24:59.045Z,4.38
2023-02-23T02:27:26.898Z,5.13
2023-02-23T02:29:54.001Z,4.20
2023-02-23T02:32:21.094Z,5.28
2023-02-23T02:34:48.063Z,4.78
2023-02-23T02:37:15.039Z,4.63
2023-02-23T02:39:42.051Z,4.47
2023-02-23T02:42:09.166Z,4.63
2023-02-23T02:44:36.174Z,4.72
2023-02-23T02:47:03.131Z,4.53
2023-02-23T02:49:30.142Z,4.20
2023-02-23T02:51:57.162Z,4.13
2023-02-23T02:54:24.115Z,4.72
2023-02-23T02:56:51.044Z,4.65
2023-02-23T02:59:18.070Z,4.47
2023-02-23T03:01:45.106Z,5.15
2023-02-23T03:04:12.115Z,4.40
2023-02-23T03:06:39.058Z,4.38
2023-02-23T03:09:06.015Z,4.32
2023-02-23T03:11:33.022Z,4.07
2023-02-23T03:13:59.971Z,5.07
2023-02-23T03:16:26.951Z,4.03
2023-02-23T03:18:53.883Z,4.28
2023-02-23T03:21:21.051Z,4.57
2023-02-23T03:23:48.061Z,4.20
2023-02-23T03:26:15.002Z,4.55
2023-02-23T03:28:41.962Z,4.63
2023-02-23T03:31:08.906Z,5.75
2023-02-23T03:33:35.814Z,4.72
2023-02-23T03:36:02.753Z,6.53
2023-02-23T03:38:29.676Z,6.05
2023-02-23T03:40:56.615Z,6.50
2023-02-23T03:43:23.590Z,7.13
2023-02-23T03:45:50.537Z,9.65
2023-02-23T03:48:17.503Z,8.15
2023-02-23T03:50:44.604Z,7.68
2023-02-23T03:53:11.574Z,5.50
2023-02-23T03:55:38.482Z,5.20
2023-02-23T03:58:05.430Z,5.63
2023-02-23T04:00:32.345Z,8.10
2023-02-23T04:02:59.288Z,7.82
2023-02-23T04:05:26.220Z,10.15
2023-02-23T04:07:53.183Z,14.35
2023-02-23T04:10:20.104Z,15.52
2023-02-23T04:12:47.057Z,15.73
2023-02-23T04:15:13.984Z,17.20
2023-02-23T04:17:40.942Z,24.42
2023-02-23T04:20:07.918Z,17.75
2023-02-23T04:22:34.932Z,13.95
2023-02-23T04:25:01.891Z,16.27
2023-02-23T04:27:28.859Z,11.02
2023-02-23T04:29:55.858Z,11.00
2023-02-23T04:32:22.889Z,10.73
2023-02-23T04:34:49.871Z,7.75
2023-02-23T04:37:16.808Z,7.30
2023-02-23T04:39:43.755Z,5.93
2023-02-23T04:42:10.702Z,6.07
2023-02-23T04:44:37.736Z,5.03
2023-02-23T04:47:04.737Z,5.25
2023-02-23T04:49:31.662Z,5.80
2023-02-23T04:51:58.600Z,6.25
2023-02-23T04:54:25.541Z,4.95
2023-02-23T04:56:52.469Z,6.43
2023-02-23T04:59:19.387Z,5.90
2023-02-23T05:01:46.359Z,6.30
2023-02-23T05:04:13.310Z,5.40
2023-02-23T05:06:40.237Z,5.55
2023-02-23T05:09:07.169Z,6.50
2023-02-23T05:11:34.115Z,5.65
2023-02-23T05:14:01.025Z,8.63
2023-02-23T05:16:27.951Z,12.73
2023-02-23T05:18:54.908Z,11.23
2023-02-23T05:21:21.867Z,10.45
2023-02-23T05:23:48.829Z,9.20
2023-02-23T05:26:15.763Z,8.15
2023-02-23T05:28:42.675Z,8.10
2023-02-23T05:31:09.754Z,8.02
2023-02-23T05:33:36.736Z,9.40
2023-02-23T05:36:03.642Z,15.43
2023-02-23T05:38:30.586Z,15.98
2023-02-23T05:40:57.488Z,13.13
2023-02-23T05:43:24.428Z,15.55
2023-02-23T05:45:51.375Z,20.02
2023-02-23T05:48:18.317Z,18.38
2023-02-23T05:50:45.228Z,16.25
2023-02-23T05:53:12.146Z,16.38
2023-02-23T05:55:39.310Z,11.90
2023-02-23T05:58:06.215Z,8.70
2023-02-23T06:00:33.094Z,7.43
2023-02-23T06:03:00.002Z,9.57
2023-02-23T06:05:26.936Z,8.60
2023-02-23T06:07:53.878Z,13.57
2023-02-23T06:10:20.764Z,13.10
2023-02-23T06:12:47.678Z,11.02
2023-02-23T06:15:14.597Z,11.80
2023-02-23T06:17:41.511Z,12.30
2023-02-23T06:20:08.433Z,20.58
2023-02-23T06:22:35.328Z,17.58
2023-02-23T06:25:02.223Z,15.88
2023-02-23T06:27:29.136Z,11.95
2023-02-23T06:29:56.080Z,11.23
2023-02-23T06:32:23.150Z,11.15
2023-02-23T06:34:50.079Z,10.60
2023-02-23T06:37:17.186Z,11.55
2023-02-23T06:39:44.099Z,14.57
2023-02-23T06:44:46.817Z,18.23
2023-02-23T06:47:13.844Z,16.50
2023-02-23T06:49:40.791Z,15.65
2023-02-23T06:52:07.698Z,12.10
2023-02-23T06:54:34.620Z,12.13
2023-02-23T06:57:01.518Z,14.30
2023-02-23T06:59:28.432Z,14.23
2023-02-23T07:01:55.351Z,14.57
2023-02-23T07:04:22.360Z,16.23
2023-02-23T07:06:49.350Z,18.05
2023-02-23T07:09:18.737Z,18.42
2023-02-23T07:11:45.815Z,19.30
2023-02-23T07:14:15.285Z,20.15
2023-02-23T07:16:48.294Z,22.13
2023-02-23T07:19:15.230Z,20.38
2023-02-23T07:21:42.143Z,20.88
2023-02-23T07:24:09.090Z,18.98
2023-02-23T07:26:37.121Z,21.60
2023-02-23T07:29:04.046Z,33.15
2023-02-23T07:31:31.017Z,35.75
2023-02-23T07:33:57.964Z,27.65
2023-02-23T07:36:24.877Z,34.80
2023-02-23T07:38:51.887Z,62.78
2023-02-23T07:49:27.439Z,19.58
2023-02-23T07:51:54.372Z,16.95
2023-02-23T07:54:21.329Z,18.25
2023-02-23T07:56:48.259Z,18.02
2023-02-23T07:59:15.220Z,18.23
2023-02-23T08:01:42.243Z,17.60
2023-02-23T08:15:09.871Z,18.05
2023-02-23T08:17:36.794Z,17.93
2023-02-23T08:20:13.926Z,16.70
2023-02-23T08:22:49.323Z,17.05
2023-02-23T08:25:20.224Z,19.75
2023-02-23T08:27:56.447Z,18.27
2023-02-23T08:30:23.468Z,17.65
2023-02-23T08:32:53.191Z,18.77
2023-02-23T08:35:20.192Z,17.85
2023-02-23T08:37:57.782Z,17.20
2023-02-23T08:40:24.715Z,18.27
2023-02-23T08:42:51.617Z,17.65
2023-02-23T08:45:18.569Z,17.60
2023-02-23T08:47:45.499Z,18.55
2023-02-23T08:50:12.425Z,18.67
2023-02-23T08:52:39.355Z,18.38
2023-02-23T08:55:06.298Z,18.80
2023-02-23T08:57:33.344Z,19.30
2023-02-23T09:00:00.285Z,17.27
2023-02-23T09:02:27.207Z,19.60
2023-02-23T09:04:54.173Z,16.98
2023-02-23T09:07:21.100Z,17.30
2023-02-23T09:09:48.039Z,18.13
2023-02-23T09:12:14.949Z,18.20
2023-02-23T09:14:41.894Z,19.58
2023-02-23T09:17:08.839Z,19.55
2023-02-23T09:19:35.750Z,19.88
2023-02-23T09:22:02.728Z,20.00
2023-02-23T09:24:29.830Z,20.50
2023-02-23T09:26:56.888Z,20.17
2023-02-23T09:29:23.991Z,19.90
2023-02-23T09:31:51.041Z,19.73
2023-02-23T09:34:18.034Z,20.25
2023-02-23T09:36:44.934Z,21.02
2023-02-23T09:39:11.846Z,20.00
2023-02-23T09:41:41.151Z,20.17
2023-02-23T09:44:08.890Z,21.08
2023-02-23T09:46:35.888Z,20.52
2023-02-23T09:49:06.821Z,19.58
2023-02-23T09:51:34.180Z,19.65
2023-02-23T09:54:01.090Z,20.90
2023-02-23T09:56:28.052Z,19.63
2023-02-23T09:58:55.017Z,19.25
2023-02-23T10:01:22.237Z,19.40
2023-02-23T10:03:49.461Z,19.50
2023-02-23T10:06:16.419Z,18.77
2023-02-23T10:08:43.341Z,19.10
2023-02-23T10:11:10.440Z,17.38
2023-02-23T10:13:37.379Z,18.02
2023-02-23T10:16:04.325Z,16.58
2023-02-23T10:18:45.680Z,16.85
2023-02-23T10:21:13.329Z,15.32
2023-02-23T10:23:40.273Z,15.43
2023-02-23T10:26:07.190Z,14.88
2023-02-23T10:28:34.117Z,15.02
2023-02-23T10:31:01.134Z,14.45
2023-02-23T10:33:28.077Z,14.75
2023-02-23T10:36:07.479Z,14.65
2023-02-23T10:38:39.651Z,12.90
2023-02-23T10:41:06.561Z,13.63
2023-02-23T10:43:33.490Z,12.98
2023-02-23T10:46:00.449Z,13.25
2023-02-23T10:48:27.764Z,14.60
2023-02-23T10:50:54.771Z,16.13
2023-02-23T10:53:21.692Z,17.63
2023-02-23T10:55:48.628Z,17.80
2023-02-23T10:58:15.548Z,19.42
2023-02-23T11:00:42.471Z,20.75
2023-02-23T11:03:09.428Z,20.73
2023-02-23T11:05:38.827Z,21.45
2023-02-23T11:08:05.741Z,23.25
2023-02-23T11:10:32.790Z,23.08
2023-02-23T11:12:59.839Z,26.95
2023-02-23T11:15:39.422Z,27.55
2023-02-23T11:18:13.887Z,29.83
2023-02-23T11:20:40.901Z,31.00
2023-02-23T11:23:14.201Z,31.67
2023-02-23T11:25:41.565Z,31.08
2023-02-23T11:28:08.577Z,32.30
2023-02-23T11:30:35.549Z,31.83
2023-02-23T11:33:02.519Z,29.63
2023-02-23T11:35:29.473Z,29.58
2023-02-23T11:37:56.390Z,31.35
2023-02-23T11:40:23.301Z,31.52
2023-02-23T11:42:50.192Z,29.75
2023-02-23T11:45:17.138Z,27.27
2023-02-23T11:47:44.057Z,30.85
2023-02-23T11:50:10.957Z,28.83
2023-02-23T11:52:37.857Z,29.85
2023-02-23T11:55:04.780Z,28.33
2023-02-23T11:57:31.858Z,28.83
2023-02-23T11:59:58.811Z,29.02
2023-02-23T12:02:25.745Z,31.92
2023-02-23T12:04:52.905Z,29.35
2023-02-23T12:07:20.200Z,29.60
2023-02-23T12:09:47.172Z,29.65
2023-02-23T12:12:14.124Z,29.33
2023-02-23T12:14:41.246Z,31.35
2023-02-23T12:17:08.314Z,32.30
2023-02-23T12:19:35.248Z,30.30
2023-02-23T12:22:02.195Z,31.17
2023-02-23T12:24:30.239Z,30.52
2023-02-23T12:26:57.158Z,30.90
2023-02-23T12:29:24.077Z,31.17
2023-02-23T12:31:51.029Z,30.73
2023-02-23T12:34:18.013Z,28.48
2023-02-23T12:36:44.949Z,33.55
2023-02-23T12:39:11.887Z,29.55
2023-02-23T12:41:38.880Z,32.10
2023-02-23T12:44:05.830Z,32.50
2023-02-23T12:46:32.876Z,31.00
2023-02-23T12:49:00.884Z,30.23
2023-02-23T12:51:27.795Z,31.60
2023-02-23T12:53:54.744Z,30.45
2023-02-23T12:56:24.427Z,31.75
2023-02-23T12:58:51.371Z,30.75
2023-02-23T13:01:18.689Z,30.73
2023-02-23T13:03:45.907Z,29.52
2023-02-23T13:06:12.875Z,29.65
2023-02-23T13:08:40.168Z,31.45
2023-02-23T13:11:07.433Z,31.75
2023-02-23T13:13:34.439Z,29.27
2023-02-23T13:16:01.409Z,31.40
2023-02-23T13:18:28.384Z,30.55
2023-02-23T13:20:55.348Z,29.63
2023-02-23T13:23:22.298Z,28.80
2023-02-23T13:25:49.225Z,29.10
2023-02-23T13:28:16.133Z,28.83
2023-02-23T13:30:43.141Z,28.10
2023-02-23T13:33:10.167Z,27.45
2023-02-23T13:35:37.074Z,28.20
2023-02-23T13:38:04.044Z,26.50
2023-02-23T13:40:31.016Z,28.13
2023-02-23T13:42:58.044Z,26.23
2023-02-23T13:45:25.067Z,24.35
2023-02-23T13:47:54.404Z,25.98
2023-02-23T13:50:21.294Z,25.33
2023-02-23T13:52:49.979Z,23.80
2023-02-23T13:55:40.024Z,26.58
2023-02-23T14:01:05.182Z,23.80
2023-02-23T14:04:25.506Z,25.67
2023-02-23T14:20:28.009Z,23.05
2023-02-23T14:22:56.517Z,21.15
2023-02-23T14:31:14.264Z,21.10
2023-02-23T14:33:44.474Z,21.05
2023-02-23T15:35:38.558Z,16.33
2023-02-23T15:40:50.357Z,15.63
2023-02-23T15:43:17.329Z,15.50
2023-02-23T15:45:44.334Z,15.88
2023-02-23T15:48:11.325Z,16.45
2023-02-23T15:50:38.366Z,16.65
2023-02-23T15:53:05.296Z,16.23
2023-02-23T15:55:32.213Z,15.77
2023-02-23T15:57:59.158Z,15.25
2023-02-23T16:00:26.084Z,14.80
2023-02-23T16:02:53.060Z,15.30
2023-02-23T16:05:32.607Z,15.30
2023-02-23T16:08:02.255Z,14.95
2023-02-23T16:10:29.219Z,15.90
2023-02-23T16:12:56.185Z,15.07
2023-02-23T16:15:23.161Z,14.40
2023-02-23T16:17:50.257Z,14.88
2023-02-23T16:20:17.174Z,14.77
2023-02-23T16:22:44.900Z,15.60
2023-02-23T16:25:14.224Z,16.02
2023-02-23T16:27:41.143Z,14.90
2023-02-23T16:30:08.129Z,14.30
2023-02-23T16:32:35.310Z,13.10
2023-02-23T16:35:02.518Z,12.82
2023-02-23T16:37:29.508Z,11.98
2023-02-23T16:39:56.445Z,11.32
2023-02-23T16:42:23.407Z,10.35
2023-02-23T16:44:50.345Z,9.30
2023-02-23T16:47:17.234Z,10.02
2023-02-23T16:49:44.157Z,10.00
2023-02-23T16:52:11.249Z,8.52
2023-02-23T16:54:38.155Z,7.97
2023-02-23T16:57:05.131Z,7.30
2023-02-23T16:59:32.210Z,7.63
2023-02-23T17:01:59.120Z,7.30
2023-02-23T17:04:26.063Z,6.38
2023-02-23T17:06:53.018Z,6.28
2023-02-23T17:09:19.961Z,6.50
2023-02-23T17:11:47.079Z,6.25
2023-02-23T17:14:14.080Z,5.38
2023-02-23T17:16:41.069Z,4.95
2023-02-23T17:19:08.058Z,5.35
2023-02-23T17:21:35.037Z,5.32
2023-02-23T17:24:01.946Z,4.75
2023-02-23T17:26:28.860Z,4.90
2023-02-23T17:28:55.846Z,4.82
2023-02-23T17:31:25.787Z,4.38
2023-02-23T17:33:54.078Z,4.85
2023-02-23T17:36:21.014Z,4.50
2023-02-23T17:38:47.946Z,4.72
2023-02-23T17:41:15.038Z,5.05
2023-02-23T17:43:42.005Z,4.97
2023-02-23T17:46:09.117Z,5.13
2023-02-23T17:48:36.127Z,5.28
2023-02-23T17:51:03.134Z,5.22
2023-02-23T17:53:30.059Z,5.53
2023-02-23T17:55:56.980Z,4.85
2023-02-23T17:58:23.916Z,5.53
2023-02-23T18:06:09.958Z,4.70
2023-02-23T18:08:36.975Z,4.73
2023-02-23T18:11:05.911Z,4.65
2023-02-23T18:13:33.200Z,3.80
2023-02-23T18:16:00.150Z,4.53
2023-02-23T18:21:18.913Z,3.53
2023-02-23T18:23:46.449Z,3.92
2023-02-23T18:26:30.260Z,3.95
2023-02-23T18:29:04.353Z,5.20
2023-02-23T18:31:31.548Z,3.75
2023-02-23T18:33:58.673Z,4.30
2023-02-23T18:36:25.932Z,3.80
2023-02-23T18:38:53.023Z,4.30
2023-02-23T18:41:20.142Z,4.20
2023-02-23T18:43:47.438Z,4.03
2023-02-23T18:46:14.685Z,3.65
2023-02-23T18:51:52.548Z,4.95
2023-02-23T19:02:36.683Z,4.13
2023-02-23T19:05:03.636Z,3.90
2023-02-23T19:07:30.584Z,4.10
2023-02-23T19:09:57.537Z,4.85
2023-02-23T19:12:24.806Z,4.05
2023-02-23T19:14:51.725Z,4.53
2023-02-23T19:17:21.680Z,6.43
2023-02-23T19:19:48.776Z,5.03
2023-02-23T19:22:15.668Z,4.78
2023-02-23T19:24:42.596Z,6.03
2023-02-23T19:27:10.549Z,6.22
2023-02-23T19:29:37.507Z,5.38
2023-02-23T19:32:07.404Z,4.93
2023-02-23T19:34:34.526Z,4.10
2023-02-23T19:37:01.568Z,4.65
2023-02-23T19:39:28.594Z,4.05
2023-02-23T19:41:56.330Z,3.42
2023-02-23T19:44:24.171Z,3.80
2023-02-23T19:46:51.319Z,4.00
2023-02-23T19:49:18.688Z,3.72
2023-02-23T19:51:46.060Z,3.58
2023-02-23T19:54:13.109Z,3.70
2023-02-23T19:56:40.174Z,4.05
2023-02-23T19:59:07.171Z,3.70
2023-02-23T20:01:34.353Z,4.75
2023-02-23T20:04:01.530Z,4.32
2023-02-23T20:06:28.572Z,3.42
2023-02-23T20:08:55.524Z,3.63
2023-02-23T20:11:23.532Z,4.22
2023-02-23T20:13:50.834Z,3.28
2023-02-23T20:16:17.958Z,3.80
2023-02-23T20:18:45.096Z,4.05
2023-02-23T20:21:12.338Z,4.15
2023-02-23T20:23:39.794Z,3.88
2023-02-23T20:26:08.240Z,3.30
2023-02-23T20:28:45.805Z,3.45
2023-02-23T20:31:14.156Z,2.80
2023-02-23T20:33:44.993Z,3.35
2023-02-23T20:38:56.880Z,3.78
2023-02-23T20:41:24.230Z,5.20
2023-02-23T20:43:53.402Z,8.27
2023-02-23T20:46:20.425Z,9.32
2023-02-23T20:48:47.379Z,7.65
2023-02-23T20:51:14.434Z,5.38
2023-02-23T20:53:41.389Z,4.63
2023-02-23T20:56:08.820Z,4.80
2023-02-23T20:58:35.961Z,3.58
2023-02-23T21:01:03.037Z,3.85
2023-02-23T21:03:30.080Z,3.72
2023-02-23T21:05:57.283Z,3.83
2023-02-23T21:08:24.441Z,3.47
2023-02-23T21:10:51.354Z,3.38
2023-02-23T21:13:21.455Z,3.47
2023-02-23T21:15:48.974Z,3.40
2023-02-23T21:21:00.253Z,2.95
2023-02-23T21:23:27.238Z,3.50
2023-02-23T21:25:54.662Z,3.25
2023-02-23T21:28:21.672Z,3.20
2023-02-23T21:30:48.711Z,3.58
2023-02-23T21:33:20.105Z,4.20
2023-02-23T21:35:46.995Z,3.58
2023-02-23T21:38:13.897Z,3.88
2023-02-23T21:40:41.931Z,3.85
2023-02-23T21:43:08.884Z,3.13
2023-02-23T21:45:36.089Z,2.97
2023-02-23T21:48:05.755Z,3.22
2023-02-23T21:50:32.729Z,3.10
2023-02-23T21:52:59.632Z,3.47
2023-02-23T21:55:26.543Z,2.63
2023-02-23T21:57:53.600Z,2.58
2023-02-23T22:00:21.119Z,2.90
2023-02-23T22:02:48.123Z,3.10
2023-02-23T22:05:15.313Z,3.13
2023-02-23T22:07:42.392Z,2.78
2023-02-23T22:10:11.645Z,2.95
2023-02-23T22:12:38.560Z,3.30
2023-02-23T22:15:05.700Z,2.60
2023-02-23T22:17:32.917Z,3.20
2023-02-23T22:20:00.003Z,3.00
2023-02-23T22:22:27.916Z,3.17
2023-02-23T22:24:54.847Z,3.30
2023-02-23T22:27:21.763Z,2.83
2023-02-23T22:29:49.780Z,2.80
2023-02-23T22:32:16.828Z,3.03
2023-02-23T22:34:47.336Z,2.65
2023-02-23T22:37:18.500Z,2.87
2023-02-23T22:42:15.337Z,3.00
2023-02-23T22:44:42.962Z,2.75
2023-02-23T22:47:10.259Z,2.55
2023-02-23T22:49:37.796Z,3.03
2023-02-23T22:52:07.728Z,2.72
2023-02-23T22:54:34.793Z,2.80
2023-02-23T22:57:01.872Z,2.78
2023-02-23T22:59:29.155Z,4.18
2023-02-23T23:01:56.081Z,3.00
2023-02-23T23:04:23.073Z,3.08
2023-02-23T23:06:51.667Z,2.67
2023-02-23T23:09:18.850Z,2.70
2023-02-23T23:11:45.849Z,2.53
2023-02-23T23:14:14.060Z,2.88
2023-02-23T23:16:41.067Z,2.75
2023-02-23T23:19:09.030Z,3.50
2023-02-23T23:21:36.304Z,2.35
2023-02-23T23:24:03.329Z,3.20
2023-02-23T23:26:34.795Z,2.40
2023-02-23T23:29:04.622Z,2.85
2023-02-23T23:31:31.703Z,3.33
2023-02-23T23:33:58.857Z,2.83
2023-02-23T23:36:34.185Z,2.80
2023-02-23T23:39:01.193Z,2.47
2023-02-23T23:41:28.223Z,2.40
2023-02-23T23:44:02.144Z,2.50
2023-02-23T23:46:29.239Z,2.35
2023-02-23T23:48:56.203Z,2.63
2023-02-23T23:51:25.132Z,2.45
2023-02-23T23:53:52.288Z,2.67
2023-02-23T23:56:19.229Z,2.30
2023-02-23T23:58:46.230Z,2.53
